createdAt,value
2023-03-24T00:00:16.421Z,0.00
2023-03-24T00:01:16.371Z,0.00
2023-03-24T00:02:16.406Z,0.00
2023-03-24T00:03:16.409Z,0.00
2023-03-24T00:04:16.380Z,0.00
2023-03-24T00:05:16.336Z,0.00
2023-03-24T00:06:17.326Z,0.00
2023-03-24T00:07:16.312Z,0.00
2023-03-24T00:08:16.356Z,0.00
2023-03-24T00:09:16.294Z,0.00
2023-03-24T00:10:16.304Z,0.00
2023-03-24T00:11:16.275Z,0.00
2023-03-24T00:12:16.354Z,0.00
2023-03-24T00:13:16.342Z,0.00
2023-03-24T00:14:16.275Z,0.00
2023-03-24T00:15:16.295Z,0.00
2023-03-24T00:16:16.250Z,0.00
2023-03-24T00:17:16.266Z,0.00
2023-03-24T00:18:16.283Z,0.00
2023-03-24T00:19:16.213Z,0.00
2023-03-24T00:20:16.224Z,0.00
2023-03-24T00:21:16.361Z,0.00
2023-03-24T00:22:17.304Z,0.00
2023-03-24T00:23:16.230Z,0.00
2023-03-24T00:24:16.202Z,0.00
2023-03-24T00:25:17.037Z,0.00
2023-03-24T00:26:16.821Z,0.00
2023-03-24T00:27:16.162Z,0.00
2023-03-24T00:28:16.206Z,0.00
2023-03-24T00:29:16.176Z,0.00
2023-03-24T00:30:16.245Z,0.00
2023-03-24T00:31:16.210Z,0.00
2023-03-24T00:32:16.247Z,0.00
2023-03-24T00:33:16.231Z,0.00
2023-03-24T00:34:16.132Z,0.00
2023-03-24T00:35:16.980Z,0.00
2023-03-24T00:36:16.126Z,0.00
2023-03-24T00:37:16.096Z,0.00
2023-03-24T00:38:16.160Z,0.00
2023-03-24T00:39:16.950Z,0.00
2023-03-24T00:40:16.120Z,0.00
2023-03-24T00:41:16.074Z,0.00
2023-03-24T00:42:16.056Z,0.00
2023-03-24T00:43:16.078Z,0.00
2023-03-24T00:44:16.956Z,0.00
2023-03-24T00:45:47.981Z,0.00
2023-03-24T00:46:16.137Z,0.00
2023-03-24T00:47:16.023Z,0.00
2023-03-24T00:48:16.037Z,0.00
2023-03-24T00:49:16.084Z,0.00
2023-03-24T00:50:16.069Z,0.00
2023-03-24T00:51:16.023Z,0.00
2023-03-24T00:52:16.029Z,0.00
2023-03-24T00:53:17.005Z,0.00
2023-03-24T00:54:17.437Z,0.00
2023-03-24T00:55:16.073Z,0.00
2023-03-24T00:56:16.011Z,0.00
2023-03-24T00:57:16.051Z,0.00
2023-03-24T00:58:16.047Z,0.00
2023-03-24T00:59:16.051Z,0.00
2023-03-24T01:00:16.002Z,0.00
2023-03-24T01:01:16.004Z,0.00
2023-03-24T01:02:16.521Z,0.00
2023-03-24T01:03:16.002Z,0.00
2023-03-24T01:04:15.909Z,0.00
2023-03-24T01:05:16.026Z,0.00
2023-03-24T01:06:15.944Z,0.00
2023-03-24T01:07:15.953Z,0.00
2023-03-24T01:08:15.914Z,0.00
2023-03-24T01:09:15.886Z,0.00
2023-03-24T01:10:15.995Z,0.00
2023-03-24T01:11:16.450Z,0.00
2023-03-24T01:12:15.897Z,0.00
2023-03-24T01:13:15.876Z,0.00
2023-03-24T01:14:15.892Z,0.00
2023-03-24T01:15:15.939Z,0.00
2023-03-24T01:16:16.940Z,0.00
2023-03-24T01:17:15.857Z,0.00
2023-03-24T01:18:15.858Z,0.00
2023-03-24T01:19:16.476Z,0.00
2023-03-24T01:20:16.442Z,0.00
2023-03-24T01:21:15.793Z,0.00
2023-03-24T01:22:15.775Z,0.00
2023-03-24T01:23:15.757Z,0.00
2023-03-24T01:24:15.882Z,0.00
2023-03-24T01:25:15.812Z,0.00
2023-03-24T01:26:15.810Z,0.00
2023-03-24T01:27:15.805Z,0.00
2023-03-24T01:28:15.776Z,0.00
2023-03-24T01:29:15.824Z,0.00
2023-03-24T01:30:15.891Z,0.00
2023-03-24T01:31:15.796Z,0.00
2023-03-24T01:32:15.731Z,0.00
2023-03-24T01:33:15.760Z,0.00
2023-03-24T01:34:15.714Z,0.00
2023-03-24T01:35:15.768Z,0.00
2023-03-24T01:36:15.738Z,0.00
2023-03-24T01:37:15.712Z,0.00
2023-03-24T01:38:15.750Z,0.00
2023-03-24T01:39:15.764Z,0.00
2023-03-24T01:40:15.691Z,0.00
2023-03-24T01:41:15.635Z,0.00
2023-03-24T01:42:16.489Z,0.00
2023-03-24T01:43:15.856Z,0.00
2023-03-24T01:44:15.670Z,0.00
2023-03-24T01:45:15.676Z,0.00
2023-03-24T01:46:15.657Z,0.00
2023-03-24T01:47:15.654Z,0.00
2023-03-24T01:48:15.696Z,0.00
2023-03-24T01:49:15.599Z,0.00
2023-03-24T01:50:15.615Z,0.00
2023-03-24T01:51:15.578Z,0.00
2023-03-24T01:52:15.561Z,0.00
2023-03-24T01:53:15.553Z,0.00
2023-03-24T01:54:16.700Z,0.00
2023-03-24T01:55:15.662Z,0.00
2023-03-24T01:56:15.668Z,0.00
2023-03-24T01:57:15.526Z,0.00
2023-03-24T01:58:15.508Z,0.00
2023-03-24T01:59:16.515Z,0.00
2023-03-24T02:00:15.506Z,0.00
2023-03-24T02:01:15.527Z,0.00
2023-03-24T02:02:15.495Z,0.00
2023-03-24T02:03:15.500Z,0.00
2023-03-24T02:04:15.570Z,0.00
2023-03-24T02:05:15.504Z,0.00
2023-03-24T02:06:15.463Z,0.00
2023-03-24T02:07:15.458Z,0.00
2023-03-24T02:08:15.465Z,0.00
2023-03-24T02:09:15.452Z,0.00
2023-03-24T02:10:15.467Z,0.00
2023-03-24T02:11:15.490Z,0.00
2023-03-24T02:12:15.434Z,0.00
2023-03-24T02:13:15.444Z,0.00
2023-03-24T02:14:15.421Z,0.00
2023-03-24T02:15:15.409Z,0.00
2023-03-24T02:16:15.485Z,0.00
2023-03-24T02:17:15.398Z,0.00
2023-03-24T02:18:15.395Z,0.00
2023-03-24T02:19:15.389Z,0.00
2023-03-24T02:20:15.391Z,0.00
2023-03-24T02:21:15.392Z,0.00
2023-03-24T02:22:15.370Z,0.00
2023-03-24T02:23:15.361Z,0.00
2023-03-24T02:24:15.352Z,0.00
2023-03-24T02:25:15.347Z,0.00
2023-03-24T02:26:15.367Z,0.00
2023-03-24T02:27:15.361Z,0.00
2023-03-24T02:28:15.322Z,0.00
2023-03-24T02:29:15.317Z,0.00
2023-03-24T02:30:15.322Z,0.00
2023-03-24T02:31:15.412Z,0.00
2023-03-24T02:32:15.289Z,0.00
2023-03-24T02:33:15.304Z,0.00
2023-03-24T02:34:15.322Z,0.00
2023-03-24T02:35:15.283Z,0.00
2023-03-24T02:36:15.321Z,0.00
2023-03-24T02:37:15.275Z,0.00
2023-03-24T02:38:15.260Z,0.00
2023-03-24T02:39:15.265Z,0.00
2023-03-24T02:40:15.250Z,0.00
2023-03-24T02:41:15.262Z,0.00
2023-03-24T02:42:15.269Z,0.00
2023-03-24T02:43:15.257Z,0.00
2023-03-24T02:44:15.282Z,0.00
2023-03-24T02:45:15.235Z,0.00
2023-03-24T02:46:15.305Z,0.00
2023-03-24T02:47:15.205Z,0.00
2023-03-24T02:48:15.347Z,0.00
2023-03-24T02:49:16.072Z,0.00
2023-03-24T02:50:15.270Z,0.00
2023-03-24T02:51:15.222Z,0.00
2023-03-24T02:52:15.220Z,0.00
2023-03-24T02:53:15.152Z,0.00
2023-03-24T02:54:15.143Z,0.00
2023-03-24T02:55:15.196Z,0.00
2023-03-24T02:56:15.148Z,0.00
2023-03-24T02:57:15.134Z,0.00
2023-03-24T02:58:15.186Z,0.00
2023-03-24T02:59:15.101Z,0.00
2023-03-24T03:00:15.102Z,0.00
2023-03-24T03:01:15.144Z,0.00
2023-03-24T03:02:15.096Z,0.00
2023-03-24T03:03:15.083Z,0.00
2023-03-24T03:04:15.086Z,0.00
2023-03-24T03:05:15.084Z,0.00
2023-03-24T03:06:15.258Z,0.00
2023-03-24T03:07:15.039Z,0.00
2023-03-24T03:08:15.043Z,0.00
2023-03-24T03:09:15.046Z,0.00
2023-03-24T03:10:15.023Z,0.00
2023-03-24T03:11:15.041Z,0.00
2023-03-24T03:12:15.001Z,0.00
2023-03-24T03:13:15.003Z,0.00
2023-03-24T03:14:14.988Z,0.00
2023-03-24T03:15:14.983Z,0.00
2023-03-24T03:16:15.057Z,0.00
2023-03-24T03:17:14.975Z,0.00
2023-03-24T03:18:14.979Z,0.00
2023-03-24T03:19:14.959Z,0.00
2023-03-24T03:20:14.966Z,0.00
2023-03-24T03:21:14.959Z,0.00
2023-03-24T03:22:14.936Z,0.00
2023-03-24T03:23:14.991Z,0.00
2023-03-24T03:24:14.924Z,0.00
2023-03-24T03:25:14.916Z,0.00
2023-03-24T03:26:14.926Z,0.00
2023-03-24T03:27:14.914Z,0.00
2023-03-24T03:28:14.897Z,0.00
2023-03-24T03:29:14.891Z,0.00
2023-03-24T03:30:14.885Z,0.00
2023-03-24T03:31:15.057Z,0.00
2023-03-24T03:32:14.869Z,0.00
2023-03-24T03:33:14.882Z,0.00
2023-03-24T03:34:14.854Z,0.00
2023-03-24T03:35:14.863Z,0.00
2023-03-24T03:36:14.896Z,0.00
2023-03-24T03:37:14.835Z,0.00
2023-03-24T03:38:14.845Z,0.00
2023-03-24T03:39:14.828Z,0.00
2023-03-24T03:40:14.806Z,0.00
2023-03-24T03:41:14.841Z,0.00
2023-03-24T03:42:14.803Z,0.00
2023-03-24T03:43:14.834Z,0.00
2023-03-24T03:44:14.797Z,0.00
2023-03-24T03:45:14.782Z,0.00
2023-03-24T03:46:14.882Z,0.00
2023-03-24T03:47:14.784Z,0.00
2023-03-24T03:48:14.793Z,0.00
2023-03-24T03:49:14.768Z,0.00
2023-03-24T03:50:14.751Z,0.00
2023-03-24T03:51:14.859Z,0.00
2023-03-24T03:52:14.744Z,0.00
2023-03-24T03:53:14.747Z,0.00
2023-03-24T03:54:14.754Z,0.00
2023-03-24T03:55:14.718Z,0.00
2023-03-24T03:56:14.725Z,0.00
2023-03-24T03:57:14.707Z,0.00
2023-03-24T03:58:14.701Z,0.00
2023-03-24T03:59:14.734Z,0.00
2023-03-24T04:00:14.684Z,0.00
2023-03-24T04:01:14.697Z,0.00
2023-03-24T04:02:14.711Z,0.00
2023-03-24T04:03:14.680Z,0.00
2023-03-24T04:04:14.674Z,0.00
2023-03-24T04:05:14.639Z,0.00
2023-03-24T04:06:14.673Z,0.00
2023-03-24T04:07:14.680Z,0.00
2023-03-24T04:08:14.629Z,0.00
2023-03-24T04:09:14.617Z,0.00
2023-03-24T04:10:14.601Z,0.00
2023-03-24T04:11:14.648Z,0.00
2023-03-24T04:12:14.626Z,0.00
2023-03-24T04:13:14.591Z,0.00
2023-03-24T04:14:14.572Z,0.00
2023-03-24T04:15:14.599Z,0.00
2023-03-24T04:16:14.602Z,0.00
2023-03-24T04:17:14.557Z,0.00
2023-03-24T04:18:14.550Z,0.00
2023-03-24T04:19:14.546Z,0.00
2023-03-24T04:20:14.522Z,0.00
2023-03-24T04:21:14.544Z,0.00
2023-03-24T04:22:14.544Z,0.00
2023-03-24T04:23:14.650Z,0.00
2023-03-24T04:24:15.505Z,0.00
2023-03-24T04:25:14.571Z,0.00
2023-03-24T04:26:14.517Z,0.00
2023-03-24T04:27:14.532Z,0.00
2023-03-24T04:28:14.508Z,0.00
2023-03-24T04:29:14.480Z,0.00
2023-03-24T04:30:16.458Z,0.00
2023-03-24T04:31:15.523Z,0.00
2023-03-24T04:32:14.467Z,0.00
2023-03-24T04:33:14.441Z,0.00
2023-03-24T04:34:14.436Z,0.00
2023-03-24T04:35:14.431Z,0.00
2023-03-24T04:36:14.472Z,0.00
2023-03-24T04:37:14.425Z,0.00
2023-03-24T04:38:14.416Z,0.00
2023-03-24T04:39:14.401Z,0.00
2023-03-24T04:40:14.409Z,0.00
2023-03-24T04:41:14.746Z,0.00
2023-03-24T04:42:14.391Z,0.00
2023-03-24T04:43:14.391Z,0.00
2023-03-24T04:44:14.388Z,0.00
2023-03-24T04:45:14.378Z,0.00
2023-03-24T04:46:14.391Z,0.00
2023-03-24T04:47:14.361Z,0.00
2023-03-24T04:48:14.353Z,0.00
2023-03-24T04:49:14.345Z,0.00
2023-03-24T04:50:14.368Z,0.00
2023-03-24T04:51:14.407Z,0.00
2023-03-24T04:52:15.706Z,0.00
2023-03-24T04:53:14.334Z,0.00
2023-03-24T04:54:14.340Z,0.00
2023-03-24T04:55:14.301Z,0.00
2023-03-24T04:56:14.350Z,0.00
2023-03-24T04:57:14.348Z,0.00
2023-03-24T04:58:14.618Z,0.00
2023-03-24T04:59:14.328Z,0.00
2023-03-24T05:00:14.258Z,0.00
2023-03-24T05:01:14.310Z,0.00
2023-03-24T05:02:14.291Z,0.00
2023-03-24T05:03:15.274Z,0.00
2023-03-24T05:04:14.312Z,0.00
2023-03-24T05:05:14.221Z,0.00
2023-03-24T05:06:14.286Z,0.00
2023-03-24T05:07:14.239Z,0.00
2023-03-24T05:08:14.216Z,0.00
2023-03-24T05:09:14.190Z,0.00
2023-03-24T05:10:14.182Z,0.00
2023-03-24T05:11:14.216Z,0.00
2023-03-24T05:12:14.226Z,0.00
2023-03-24T05:13:14.195Z,0.00
2023-03-24T05:14:14.153Z,0.00
2023-03-24T05:15:14.169Z,0.00
2023-03-24T05:16:14.279Z,0.00
2023-03-24T05:17:14.195Z,0.00
2023-03-24T05:18:14.159Z,0.00
2023-03-24T05:19:14.143Z,0.00
2023-03-24T05:20:14.157Z,0.00
2023-03-24T05:21:14.131Z,0.00
2023-03-24T05:22:14.125Z,0.00
2023-03-24T05:23:14.134Z,0.00
2023-03-24T05:24:14.095Z,0.00
2023-03-24T05:25:14.212Z,0.00
2023-03-24T05:26:14.928Z,0.00
2023-03-24T05:27:14.091Z,0.00
2023-03-24T05:28:14.108Z,0.00
2023-03-24T05:29:14.061Z,0.00
2023-03-24T05:30:14.040Z,0.00
2023-03-24T05:31:14.107Z,0.00
2023-03-24T05:32:14.035Z,0.00
2023-03-24T05:33:14.037Z,0.00
2023-03-24T05:34:14.018Z,0.00
2023-03-24T05:35:14.002Z,0.00
2023-03-24T05:36:14.095Z,0.00
2023-03-24T05:37:14.009Z,0.00
2023-03-24T05:38:13.982Z,0.00
2023-03-24T05:39:13.994Z,0.00
2023-03-24T05:40:13.976Z,0.00
2023-03-24T05:41:13.969Z,0.00
2023-03-24T05:42:13.972Z,0.00
2023-03-24T05:43:13.959Z,0.00
2023-03-24T05:44:13.957Z,0.00
2023-03-24T05:45:13.929Z,0.00
2023-03-24T05:46:13.951Z,0.00
2023-03-24T05:47:13.937Z,0.00
2023-03-24T05:48:13.915Z,0.00
2023-03-24T05:49:13.929Z,0.00
2023-03-24T05:50:13.956Z,0.00
2023-03-24T05:51:13.901Z,5.62
2023-03-24T05:52:13.916Z,5.62
2023-03-24T05:53:13.874Z,5.62
2023-03-24T05:54:13.874Z,11.25
2023-03-24T05:55:13.870Z,11.25
2023-03-24T05:56:13.856Z,11.25
2023-03-24T05:57:13.867Z,11.25
2023-03-24T05:58:13.847Z,11.25
2023-03-24T05:59:13.830Z,11.25
2023-03-24T06:00:13.827Z,11.25
2023-03-24T06:01:13.844Z,11.25
2023-03-24T06:02:13.920Z,16.88
2023-03-24T06:03:13.914Z,16.88
2023-03-24T06:04:14.467Z,16.88
2023-03-24T06:05:14.619Z,16.88
2023-03-24T06:06:13.777Z,16.88
2023-03-24T06:07:15.142Z,22.50
2023-03-24T06:08:13.771Z,22.50
2023-03-24T06:09:13.945Z,22.50
2023-03-24T06:10:13.808Z,28.12
2023-03-24T06:11:13.759Z,33.75
2023-03-24T06:12:13.764Z,33.75
2023-03-24T06:13:13.760Z,33.75
2023-03-24T06:14:13.753Z,33.75
2023-03-24T06:15:13.720Z,33.75
2023-03-24T06:16:13.753Z,33.75
2023-03-24T06:17:13.705Z,28.12
2023-03-24T06:18:13.703Z,33.75
2023-03-24T06:19:13.723Z,33.75
2023-03-24T06:20:13.690Z,39.38
2023-03-24T06:21:13.682Z,33.75
2023-03-24T06:22:13.684Z,39.38
2023-03-24T06:23:13.668Z,33.75
2023-03-24T06:24:13.690Z,39.38
2023-03-24T06:25:13.689Z,39.38
2023-03-24T06:26:13.651Z,45.00
2023-03-24T06:27:13.639Z,45.00
2023-03-24T06:28:13.647Z,33.75
2023-03-24T06:29:13.651Z,33.75
2023-03-24T06:30:13.626Z,33.75
2023-03-24T06:31:13.722Z,22.50
2023-03-24T06:32:13.608Z,22.50
2023-03-24T06:33:13.641Z,28.12
2023-03-24T06:34:13.624Z,33.75
2023-03-24T06:35:13.601Z,33.75
2023-03-24T06:36:13.644Z,39.38
2023-03-24T06:37:13.603Z,39.38
2023-03-24T06:38:13.573Z,33.75
2023-03-24T06:39:13.580Z,39.38
2023-03-24T06:40:13.569Z,39.38
2023-03-24T06:41:13.571Z,39.38
2023-03-24T06:42:13.561Z,33.75
2023-03-24T06:43:13.551Z,33.75
2023-03-24T06:44:13.542Z,33.75
2023-03-24T06:45:13.525Z,39.38
2023-03-24T06:46:13.558Z,56.25
2023-03-24T06:47:13.569Z,61.88
2023-03-24T06:48:13.548Z,56.25
2023-03-24T06:49:13.513Z,50.62
2023-03-24T06:50:13.529Z,50.62
2023-03-24T06:51:13.509Z,56.25
2023-03-24T06:52:13.528Z,67.50
2023-03-24T06:53:13.503Z,67.50
2023-03-24T06:54:13.452Z,78.75
2023-03-24T06:55:14.461Z,78.75
2023-03-24T06:56:13.469Z,67.50
2023-03-24T06:57:13.489Z,73.12
2023-03-24T06:58:13.443Z,78.75
2023-03-24T06:59:13.458Z,78.75
2023-03-24T07:00:13.435Z,95.62
2023-03-24T07:01:13.426Z,78.75
2023-03-24T07:02:13.445Z,67.50
2023-03-24T07:03:13.473Z,50.62
2023-03-24T07:04:13.393Z,45.00
2023-03-24T07:05:13.405Z,39.38
2023-03-24T07:06:13.405Z,39.38
2023-03-24T07:08:36.602Z,39.38
2023-03-24T07:09:15.370Z,39.38
2023-03-24T07:10:13.353Z,45.00
2023-03-24T07:11:13.346Z,50.62
2023-03-24T07:12:14.645Z,56.25
2023-03-24T07:13:14.355Z,56.25
2023-03-24T07:14:13.324Z,39.38
2023-03-24T07:15:13.336Z,28.12
2023-03-24T07:16:13.360Z,28.12
2023-03-24T07:17:13.352Z,33.75
2023-03-24T07:18:13.332Z,39.38
2023-03-24T07:19:13.309Z,45.00
2023-03-24T07:20:13.285Z,45.00
2023-03-24T07:21:13.288Z,33.75
2023-03-24T07:22:13.284Z,39.38
2023-03-24T07:23:13.280Z,45.00
2023-03-24T07:24:13.261Z,45.00
2023-03-24T07:25:13.249Z,45.00
2023-03-24T07:26:13.244Z,45.00
2023-03-24T07:27:13.281Z,50.62
2023-03-24T07:28:13.232Z,45.00
2023-03-24T07:29:13.221Z,33.75
2023-03-24T07:30:13.219Z,28.12
2023-03-24T07:31:13.230Z,22.50
2023-03-24T07:32:13.237Z,22.50
2023-03-24T07:33:13.196Z,16.88
2023-03-24T07:34:13.192Z,16.88
2023-03-24T07:35:13.213Z,11.25
2023-03-24T07:36:13.198Z,16.88
2023-03-24T07:37:13.200Z,33.75
2023-03-24T07:38:13.153Z,39.38
2023-03-24T07:39:13.173Z,39.38
2023-03-24T07:40:13.157Z,39.38
2023-03-24T07:41:13.148Z,39.38
2023-03-24T07:42:13.236Z,39.38
2023-03-24T07:43:13.133Z,45.00
2023-03-24T07:44:13.119Z,45.00
2023-03-24T07:45:13.118Z,39.38
2023-03-24T07:46:13.140Z,39.38
2023-03-24T07:47:13.125Z,39.38
2023-03-24T07:48:13.128Z,39.38
2023-03-24T07:49:19.502Z,39.38
2023-03-24T07:50:15.080Z,39.38
2023-03-24T07:51:13.152Z,39.38
2023-03-24T07:52:13.112Z,39.38
2023-03-24T07:53:13.051Z,45.00
2023-03-24T07:54:13.048Z,50.62
2023-03-24T07:55:13.041Z,61.88
2023-03-24T07:56:13.035Z,73.12
2023-03-24T07:57:13.071Z,78.75
2023-03-24T07:58:13.018Z,90.00
2023-03-24T07:59:13.055Z,106.88
2023-03-24T08:00:13.001Z,123.75
2023-03-24T08:01:12.995Z,135.00
2023-03-24T08:02:13.045Z,135.00
2023-03-24T08:03:13.064Z,135.00
2023-03-24T08:04:13.111Z,129.38
2023-03-24T08:05:12.986Z,135.00
2023-03-24T08:06:12.955Z,140.62
2023-03-24T08:07:13.965Z,146.25
2023-03-24T08:08:12.946Z,146.25
2023-03-24T08:09:12.945Z,140.62
2023-03-24T08:10:12.970Z,129.38
2023-03-24T08:11:12.936Z,112.50
2023-03-24T08:12:20.009Z,106.88
2023-03-24T08:13:14.913Z,90.00
2023-03-24T08:14:13.076Z,84.38
2023-03-24T08:15:12.922Z,73.12
2023-03-24T08:16:12.900Z,73.12
2023-03-24T08:17:12.884Z,73.12
2023-03-24T08:18:12.867Z,73.12
2023-03-24T08:19:12.858Z,78.75
2023-03-24T08:20:12.898Z,84.38
2023-03-24T08:21:12.848Z,84.38
2023-03-24T08:22:12.867Z,90.00
2023-03-24T08:23:12.836Z,84.38
2023-03-24T08:24:12.829Z,78.75
2023-03-24T08:25:12.837Z,73.12
2023-03-24T08:26:12.819Z,67.50
2023-03-24T08:27:12.808Z,67.50
2023-03-24T08:28:12.819Z,67.50
2023-03-24T08:29:12.793Z,73.12
2023-03-24T08:30:12.786Z,73.12
2023-03-24T08:31:12.817Z,78.75
2023-03-24T08:32:12.790Z,78.75
2023-03-24T08:33:12.806Z,84.38
2023-03-24T08:34:12.758Z,84.38
2023-03-24T08:35:12.749Z,95.62
2023-03-24T08:36:12.769Z,101.25
2023-03-24T08:37:12.733Z,101.25
2023-03-24T08:38:12.749Z,95.62
2023-03-24T08:39:12.719Z,95.62
2023-03-24T08:40:12.727Z,101.25
2023-03-24T08:41:12.707Z,106.88
2023-03-24T08:42:12.737Z,112.50
2023-03-24T08:43:12.706Z,123.75
2023-03-24T08:44:12.696Z,135.00
2023-03-24T08:45:12.689Z,146.25
2023-03-24T08:46:14.026Z,157.50
2023-03-24T08:47:13.683Z,180.00
2023-03-24T08:48:12.694Z,208.12
2023-03-24T08:49:12.668Z,230.62
2023-03-24T08:50:12.648Z,241.88
2023-03-24T08:51:12.638Z,230.62
2023-03-24T08:52:12.636Z,225.00
2023-03-24T08:53:12.687Z,225.00
2023-03-24T08:54:12.620Z,213.75
2023-03-24T08:55:12.626Z,191.25
2023-03-24T08:56:12.600Z,174.38
2023-03-24T08:57:12.593Z,163.12
2023-03-24T08:58:12.604Z,146.25
2023-03-24T08:59:12.583Z,140.62
2023-03-24T09:00:12.588Z,135.00
2023-03-24T09:01:12.590Z,129.38
2023-03-24T09:02:12.558Z,140.62
2023-03-24T09:03:12.614Z,146.25
2023-03-24T09:04:12.634Z,129.38
2023-03-24T09:05:12.553Z,135.00
2023-03-24T09:06:12.560Z,135.00
2023-03-24T09:07:12.540Z,135.00
2023-03-24T09:08:12.545Z,123.75
2023-03-24T09:09:12.506Z,129.38
2023-03-24T09:10:12.525Z,123.75
2023-03-24T09:11:12.521Z,106.88
2023-03-24T09:12:12.487Z,106.88
2023-03-24T09:13:12.493Z,118.12
2023-03-24T09:14:12.471Z,129.38
2023-03-24T09:15:13.359Z,140.62
2023-03-24T09:16:12.503Z,157.50
2023-03-24T09:17:12.462Z,157.50
2023-03-24T09:18:12.445Z,140.62
2023-03-24T09:19:12.443Z,140.62
2023-03-24T09:20:12.444Z,146.25
2023-03-24T09:21:12.457Z,135.00
2023-03-24T09:22:12.434Z,135.00
2023-03-24T09:23:12.431Z,140.62
2023-03-24T09:24:12.417Z,151.88
2023-03-24T09:25:12.400Z,151.88
2023-03-24T09:26:13.398Z,140.62
2023-03-24T09:27:12.388Z,135.00
2023-03-24T09:28:12.421Z,135.00
2023-03-24T09:29:12.374Z,123.75
2023-03-24T09:30:12.382Z,112.50
2023-03-24T09:31:12.451Z,101.25
2023-03-24T09:32:12.352Z,95.62
2023-03-24T09:33:12.361Z,90.00
2023-03-24T09:34:12.343Z,84.38
2023-03-24T09:35:12.368Z,78.75
2023-03-24T09:36:12.395Z,78.75
2023-03-24T09:37:12.321Z,73.12
2023-03-24T09:38:12.551Z,73.12
2023-03-24T09:39:12.297Z,67.50
2023-03-24T09:40:12.292Z,67.50
2023-03-24T09:41:12.295Z,61.88
2023-03-24T09:42:12.307Z,56.25
2023-03-24T09:43:12.314Z,56.25
2023-03-24T09:44:12.841Z,56.25
2023-03-24T09:45:12.638Z,61.88
2023-03-24T09:46:12.443Z,61.88
2023-03-24T09:47:12.331Z,56.25
2023-03-24T09:48:13.265Z,56.25
2023-03-24T09:49:13.264Z,56.25
2023-03-24T09:50:12.327Z,56.25
2023-03-24T09:51:12.224Z,56.25
2023-03-24T09:52:12.243Z,56.25
2023-03-24T09:53:12.386Z,56.25
2023-03-24T09:54:12.270Z,56.25
2023-03-24T09:55:12.443Z,56.25
2023-03-24T09:56:12.284Z,56.25
2023-03-24T09:57:12.408Z,56.25
2023-03-24T09:58:12.294Z,56.25
2023-03-24T09:59:12.182Z,61.88
2023-03-24T10:00:12.871Z,67.50
2023-03-24T10:01:12.892Z,67.50
2023-03-24T10:02:12.869Z,73.12
2023-03-24T10:03:12.282Z,73.12
2023-03-24T10:04:12.937Z,73.12
2023-03-24T10:05:12.186Z,73.12
2023-03-24T10:06:12.286Z,73.12
2023-03-24T10:07:12.281Z,73.12
2023-03-24T10:08:12.134Z,78.75
2023-03-24T10:09:12.161Z,78.75
2023-03-24T10:10:12.874Z,90.00
2023-03-24T10:11:12.854Z,106.88
2023-03-24T10:12:12.204Z,123.75
2023-03-24T10:13:12.885Z,140.62
2023-03-24T10:14:12.508Z,163.12
2023-03-24T10:15:12.841Z,174.38
2023-03-24T10:16:12.267Z,185.62
2023-03-24T10:17:12.284Z,196.88
2023-03-24T10:18:12.207Z,196.88
2023-03-24T10:19:12.229Z,196.88
2023-03-24T10:20:12.188Z,202.50
2023-03-24T10:21:12.160Z,202.50
2023-03-24T10:22:12.035Z,208.12
2023-03-24T10:23:12.832Z,208.12
2023-03-24T10:24:12.834Z,208.12
2023-03-24T10:25:12.165Z,202.50
2023-03-24T10:26:12.221Z,185.62
2023-03-24T10:27:12.275Z,168.75
2023-03-24T10:28:12.838Z,157.50
2023-03-24T10:29:12.230Z,151.88
2023-03-24T10:30:11.965Z,146.25
2023-03-24T10:31:11.961Z,135.00
2023-03-24T10:32:11.958Z,129.38
2023-03-24T10:33:12.017Z,135.00
2023-03-24T10:34:11.951Z,146.25
2023-03-24T10:35:11.957Z,180.00
2023-03-24T10:36:11.954Z,225.00
2023-03-24T10:37:11.917Z,270.00
2023-03-24T10:38:11.921Z,253.12
2023-03-24T10:39:19.652Z,241.88
2023-03-24T10:40:13.890Z,241.88
2023-03-24T10:41:11.911Z,247.50
2023-03-24T10:42:11.883Z,258.75
2023-03-24T10:43:11.912Z,230.62
2023-03-24T10:44:12.864Z,225.00
2023-03-24T10:45:11.894Z,208.12
2023-03-24T10:46:11.907Z,202.50
2023-03-24T10:47:11.844Z,202.50
2023-03-24T10:48:12.010Z,202.50
2023-03-24T10:49:11.848Z,213.75
2023-03-24T10:50:14.479Z,230.62
2023-03-24T10:51:11.823Z,236.25
2023-03-24T10:52:11.849Z,264.38
2023-03-24T10:53:11.868Z,253.12
2023-03-24T10:54:11.863Z,253.12
2023-03-24T10:55:11.870Z,275.62
2023-03-24T10:56:11.812Z,286.88
2023-03-24T10:57:13.059Z,309.38
2023-03-24T10:58:13.560Z,303.75
2023-03-24T10:59:11.820Z,292.50
2023-03-24T11:00:11.800Z,270.00
2023-03-24T11:01:11.778Z,236.25
2023-03-24T11:02:11.786Z,208.12
2023-03-24T11:03:11.864Z,202.50
2023-03-24T11:04:11.753Z,191.25
2023-03-24T11:05:11.778Z,191.25
2023-03-24T11:06:11.701Z,191.25
2023-03-24T11:07:11.719Z,191.25
2023-03-24T11:08:11.717Z,180.00
2023-03-24T11:09:11.689Z,151.88
2023-03-24T11:10:11.694Z,140.62
2023-03-24T11:11:11.670Z,140.62
2023-03-24T11:12:11.662Z,140.62
2023-03-24T11:13:12.689Z,129.38
2023-03-24T11:14:11.644Z,118.12
2023-03-24T11:15:20.418Z,112.50
2023-03-24T11:16:13.664Z,112.50
2023-03-24T11:17:11.664Z,112.50
2023-03-24T11:18:11.643Z,112.50
2023-03-24T11:19:11.625Z,118.12
2023-03-24T11:20:11.634Z,123.75
2023-03-24T11:21:11.601Z,129.38
2023-03-24T11:22:11.615Z,140.62
2023-03-24T11:23:11.603Z,163.12
2023-03-24T11:24:11.596Z,191.25
2023-03-24T11:25:11.567Z,236.25
2023-03-24T11:26:11.572Z,275.62
2023-03-24T11:27:11.554Z,286.88
2023-03-24T11:28:11.571Z,303.75
2023-03-24T11:29:11.541Z,320.62
2023-03-24T11:30:11.536Z,326.25
2023-03-24T11:31:11.653Z,309.38
2023-03-24T11:32:11.538Z,292.50
2023-03-24T11:33:11.527Z,292.50
2023-03-24T11:34:11.523Z,298.12
2023-03-24T11:35:11.534Z,292.50
2023-03-24T11:36:11.899Z,292.50
2023-03-24T11:37:11.528Z,343.12
2023-03-24T11:38:11.507Z,292.50
2023-03-24T11:39:11.486Z,281.25
2023-03-24T11:40:11.475Z,253.12
2023-03-24T11:41:11.467Z,230.62
2023-03-24T11:42:11.453Z,219.38
2023-03-24T11:43:11.464Z,230.62
2023-03-24T11:44:11.441Z,225.00
2023-03-24T11:45:11.432Z,213.75
2023-03-24T11:46:11.462Z,219.38
2023-03-24T11:47:11.426Z,241.88
2023-03-24T11:48:11.452Z,270.00
2023-03-24T11:49:11.511Z,264.38
2023-03-24T11:50:11.451Z,348.75
2023-03-24T11:51:11.395Z,376.88
2023-03-24T11:52:11.381Z,298.12
2023-03-24T11:53:11.406Z,320.62
2023-03-24T11:54:11.371Z,343.12
2023-03-24T11:55:11.368Z,410.62
2023-03-24T11:56:11.352Z,421.88
2023-03-24T11:57:11.371Z,354.38
2023-03-24T11:58:12.373Z,405.00
2023-03-24T11:59:11.377Z,388.12
2023-03-24T12:00:11.345Z,343.12
2023-03-24T12:01:11.321Z,309.38
2023-03-24T12:02:11.313Z,343.12
2023-03-24T12:03:11.726Z,303.75
2023-03-24T12:04:11.310Z,253.12
2023-03-24T12:05:11.321Z,326.25
2023-03-24T12:06:11.331Z,275.62
2023-03-24T12:07:11.279Z,298.12
2023-03-24T12:08:11.324Z,286.88
2023-03-24T12:09:11.286Z,320.62
2023-03-24T12:10:11.267Z,258.75
2023-03-24T12:11:11.253Z,258.75
2023-03-24T12:12:11.252Z,241.88
2023-03-24T12:13:22.052Z,241.88
2023-03-24T12:14:13.234Z,281.25
2023-03-24T12:15:24.510Z,247.50
2023-03-24T12:16:13.884Z,258.75
2023-03-24T12:17:11.280Z,376.88
2023-03-24T12:18:11.268Z,343.12
2023-03-24T12:19:11.214Z,208.12
2023-03-24T12:20:11.191Z,196.88
2023-03-24T12:21:11.252Z,180.00
2023-03-24T12:22:11.178Z,180.00
2023-03-24T12:23:11.230Z,281.25
2023-03-24T12:24:11.427Z,286.88
2023-03-24T12:25:11.237Z,281.25
2023-03-24T12:26:11.139Z,264.38
2023-03-24T12:27:11.209Z,270.00
2023-03-24T12:28:11.153Z,320.62
2023-03-24T12:29:11.162Z,292.50
2023-03-24T12:30:11.105Z,343.12
2023-03-24T12:31:11.123Z,326.25
2023-03-24T12:32:11.752Z,343.12
2023-03-24T12:33:11.168Z,320.62
2023-03-24T12:34:11.755Z,309.38
2023-03-24T12:35:11.196Z,196.88
2023-03-24T12:36:11.795Z,180.00
2023-03-24T12:37:11.749Z,191.25
2023-03-24T12:38:11.210Z,180.00
2023-03-24T12:39:11.101Z,230.62
2023-03-24T12:40:11.369Z,241.88
2023-03-24T12:41:11.745Z,219.38
2023-03-24T12:42:11.077Z,241.88
2023-03-24T12:43:11.105Z,213.75
2023-03-24T12:44:11.185Z,208.12
2023-03-24T12:45:11.112Z,208.12
2023-03-24T12:46:11.112Z,213.75
2023-03-24T12:47:11.084Z,219.38
2023-03-24T12:48:11.226Z,213.75
2023-03-24T12:49:11.015Z,208.12
2023-03-24T12:50:11.091Z,213.75
2023-03-24T12:51:11.083Z,208.12
2023-03-24T12:52:11.251Z,225.00
2023-03-24T12:53:13.629Z,320.62
2023-03-24T12:54:11.753Z,298.12
2023-03-24T12:55:11.176Z,275.62
2023-03-24T12:56:11.316Z,219.38
2023-03-24T12:57:11.174Z,264.38